createdAt,value
2018-03-14T00:00:10.806Z,2.20
2018-03-14T00:02:38.291Z,2.27
2018-03-14T00:05:05.751Z,2.07
2018-03-14T00:07:33.249Z,2.30
2018-03-14T00:10:00.735Z,2.23
2018-03-14T00:12:28.326Z,2.00
2018-03-14T00:14:55.891Z,1.80
2018-03-14T00:17:23.379Z,1.90
2018-03-14T00:19:50.876Z,1.80
2018-03-14T00:22:30.342Z,2.40
2018-03-14T00:27:31.608Z,2.07
2018-03-14T00:29:59.065Z,2.40
2018-03-14T00:32:26.543Z,2.17
2018-03-14T00:34:54.043Z,2.30
2018-03-14T00:37:21.504Z,2.00
2018-03-14T00:39:48.979Z,2.40
2018-03-14T00:42:16.470Z,2.13
2018-03-14T00:44:44.060Z,2.23
2018-03-14T00:47:11.527Z,2.20
2018-03-14T00:49:39.043Z,1.80
2018-03-14T00:52:06.542Z,2.17
2018-03-14T00:54:34.078Z,2.60
2018-03-14T00:57:01.569Z,1.80
2018-03-14T00:59:29.071Z,1.90
2018-03-14T01:01:56.590Z,2.20
2018-03-14T01:04:24.059Z,1.60
2018-03-14T01:06:51.527Z,1.70
2018-03-14T01:09:18.999Z,1.93
2018-03-14T01:11:46.464Z,1.97
2018-03-14T01:14:13.949Z,1.97
2018-03-14T01:16:41.524Z,1.67
2018-03-14T01:19:08.980Z,1.70
2018-03-14T01:21:36.438Z,1.93
2018-03-14T01:24:03.922Z,1.53
2018-03-14T01:26:32.940Z,1.77
2018-03-14T01:29:00.404Z,2.40
2018-03-14T01:31:27.878Z,2.37
2018-03-14T01:33:55.334Z,1.90
2018-03-14T01:36:22.795Z,2.33
2018-03-14T01:38:50.313Z,2.10
2018-03-14T01:41:17.766Z,2.07
2018-03-14T01:43:46.120Z,2.20
2018-03-14T01:46:13.640Z,2.20
2018-03-14T01:48:41.348Z,2.37
2018-03-14T01:51:08.816Z,2.60
2018-03-14T01:53:36.279Z,2.03
2018-03-14T01:56:03.767Z,2.30
2018-03-14T01:58:31.231Z,2.20
2018-03-14T02:00:58.676Z,2.23
2018-03-14T02:03:26.155Z,2.00
2018-03-14T02:05:53.619Z,2.27
2018-03-14T02:08:21.112Z,2.03
2018-03-14T02:10:48.594Z,1.80
2018-03-14T02:13:16.074Z,1.73
2018-03-14T02:15:43.534Z,1.77
2018-03-14T02:18:11.014Z,2.00
2018-03-14T02:20:38.508Z,1.23
2018-03-14T02:23:06.008Z,1.53
2018-03-14T02:25:33.499Z,1.43
2018-03-14T02:28:00.998Z,1.70
2018-03-14T02:30:28.559Z,1.90
2018-03-14T02:32:56.019Z,1.60
2018-03-14T02:35:23.493Z,1.73
2018-03-14T02:37:50.955Z,1.97
2018-03-14T02:40:18.440Z,2.13
2018-03-14T02:42:46.075Z,1.80
2018-03-14T02:45:13.939Z,1.80
2018-03-14T02:47:41.394Z,2.00
2018-03-14T02:50:08.872Z,2.10
2018-03-14T02:52:36.312Z,1.80
2018-03-14T02:55:03.792Z,1.80
2018-03-14T02:57:31.292Z,2.13
2018-03-14T02:59:58.748Z,2.60
2018-03-14T03:02:26.226Z,2.50
2018-03-14T03:04:53.706Z,2.87
2018-03-14T03:07:21.151Z,2.73
2018-03-14T03:09:48.627Z,2.60
2018-03-14T03:12:16.082Z,3.13
2018-03-14T03:14:43.544Z,3.10
2018-03-14T03:17:11.020Z,3.37
2018-03-14T03:19:38.470Z,3.50
2018-03-14T03:22:05.915Z,2.90
2018-03-14T03:24:33.388Z,3.43
2018-03-14T03:27:00.876Z,3.43
2018-03-14T03:29:28.321Z,3.43
2018-03-14T03:31:55.785Z,3.70
2018-03-14T03:34:23.244Z,3.77
2018-03-14T03:36:50.769Z,3.50
2018-03-14T03:39:18.359Z,3.97
2018-03-14T03:41:45.816Z,3.40
2018-03-14T03:44:13.337Z,4.00
2018-03-14T03:46:40.834Z,3.50
2018-03-14T03:49:08.289Z,3.63
2018-03-14T03:51:35.740Z,3.67
2018-03-14T03:54:04.043Z,3.17
2018-03-14T03:56:31.893Z,2.63
2018-03-14T03:58:59.329Z,3.03
2018-03-14T04:01:26.767Z,2.97
2018-03-14T04:03:54.221Z,2.37
2018-03-14T04:06:21.677Z,3.00
2018-03-14T04:08:49.154Z,2.10
2018-03-14T04:11:16.603Z,2.37
2018-03-14T04:13:44.062Z,2.70
2018-03-14T04:16:11.529Z,2.00
2018-03-14T04:18:39.019Z,2.90
2018-03-14T04:21:07.783Z,2.90
2018-03-14T04:23:35.240Z,3.00
2018-03-14T04:26:02.743Z,2.90
2018-03-14T04:28:30.938Z,2.20
2018-03-14T04:30:58.410Z,2.30
2018-03-14T04:33:25.867Z,2.20
2018-03-14T04:35:53.347Z,2.97
2018-03-14T04:38:20.815Z,2.60
2018-03-14T04:40:48.316Z,2.77
2018-03-14T04:43:15.835Z,3.23
2018-03-14T04:45:43.287Z,3.70
2018-03-14T04:48:10.747Z,3.47
2018-03-14T04:50:38.220Z,3.40
2018-03-14T04:53:05.676Z,3.03
2018-03-14T04:55:33.123Z,3.50
2018-03-14T04:58:00.587Z,3.70
2018-03-14T05:00:28.079Z,3.50
2018-03-14T05:02:55.549Z,4.00
2018-03-14T05:05:23.056Z,3.50
2018-03-14T05:07:50.511Z,4.20
2018-03-14T05:10:17.995Z,4.40
2018-03-14T05:12:46.465Z,4.00
2018-03-14T05:15:13.965Z,4.90
2018-03-14T05:17:41.454Z,5.00
2018-03-14T05:20:08.956Z,4.77
2018-03-14T05:22:37.396Z,4.83
2018-03-14T05:25:04.857Z,5.10
2018-03-14T05:27:32.340Z,5.07
2018-03-14T05:29:59.833Z,5.00
2018-03-14T05:32:27.505Z,5.47
2018-03-14T05:34:55.040Z,5.40
2018-03-14T05:37:22.537Z,5.60
2018-03-14T05:39:50.009Z,5.93
2018-03-14T05:42:17.490Z,6.10
2018-03-14T05:44:44.919Z,5.83
2018-03-14T05:47:12.875Z,5.70
2018-03-14T05:49:40.348Z,5.20
2018-03-14T05:52:07.810Z,5.70
2018-03-14T05:54:35.281Z,5.27
2018-03-14T05:57:02.767Z,6.00
2018-03-14T05:59:30.216Z,5.90
2018-03-14T06:01:57.674Z,5.47
2018-03-14T06:04:25.132Z,5.63
2018-03-14T06:06:52.774Z,6.10
2018-03-14T06:09:20.363Z,6.40
2018-03-14T06:11:47.811Z,6.67
2018-03-14T06:14:15.345Z,5.97
2018-03-14T06:16:42.819Z,6.50
2018-03-14T06:19:10.294Z,6.40
2018-03-14T06:21:37.747Z,6.57
2018-03-14T06:24:05.199Z,6.03
2018-03-14T06:26:32.750Z,7.20
2018-03-14T06:29:00.291Z,6.40
2018-03-14T06:31:27.738Z,6.50
2018-03-14T06:33:55.244Z,6.97
2018-03-14T06:36:22.770Z,6.70
2018-03-14T06:38:51.009Z,6.53
2018-03-14T06:41:18.669Z,6.93
2018-03-14T06:43:46.145Z,6.50
2018-03-14T06:46:13.695Z,7.17
2018-03-14T06:48:41.202Z,6.60
2018-03-14T06:51:08.843Z,7.17
2018-03-14T06:53:36.320Z,6.23
2018-03-14T06:56:03.834Z,6.43
2018-03-14T06:58:43.032Z,6.07
2018-03-14T07:04:29.062Z,6.47
2018-03-14T07:06:56.541Z,6.70
2018-03-14T07:09:24.250Z,6.20
2018-03-14T07:11:52.527Z,5.90
2018-03-14T07:14:21.701Z,5.83
2018-03-14T07:16:49.282Z,5.50
2018-03-14T07:19:16.769Z,5.37
2018-03-14T07:21:44.223Z,6.23
2018-03-14T07:24:11.681Z,6.67
2018-03-14T07:26:39.139Z,5.60
2018-03-14T07:29:06.574Z,6.47
2018-03-14T07:31:34.053Z,5.80
2018-03-14T07:34:01.526Z,5.30
2018-03-14T07:36:29.121Z,5.10
2018-03-14T07:38:56.604Z,5.40
2018-03-14T07:41:24.051Z,4.93
2018-03-14T07:43:51.519Z,4.53
2018-03-14T07:46:19.104Z,4.87
2018-03-14T07:48:46.669Z,4.60
2018-03-14T07:51:14.146Z,4.90
2018-03-14T07:53:41.634Z,4.80
2018-03-14T07:56:09.098Z,5.07
2018-03-14T07:58:36.586Z,4.53
2018-03-14T08:01:04.647Z,5.10
2018-03-14T08:03:32.140Z,4.80
2018-03-14T08:05:59.603Z,4.80
2018-03-14T08:08:27.058Z,4.27
2018-03-14T08:10:54.823Z,5.30
2018-03-14T08:13:22.320Z,4.77
2018-03-14T08:15:49.777Z,4.40
2018-03-14T08:18:17.275Z,5.80
2018-03-14T08:20:44.731Z,6.50
2018-03-14T08:23:12.188Z,5.20
2018-03-14T08:25:39.673Z,6.07
2018-03-14T08:28:07.257Z,6.10
2018-03-14T08:30:34.810Z,5.27
2018-03-14T08:33:04.372Z,5.37
2018-03-14T08:35:31.929Z,6.23
2018-03-14T08:37:59.412Z,5.67
2018-03-14T08:40:27.143Z,6.10
2018-03-14T08:42:54.639Z,6.13
2018-03-14T08:45:22.335Z,11.40
2018-03-14T08:47:49.796Z,6.17
2018-03-14T08:50:17.315Z,7.10
2018-03-14T08:52:44.771Z,6.57
2018-03-14T08:55:12.283Z,5.73
2018-03-14T08:57:39.743Z,6.23
2018-03-14T09:00:07.187Z,6.40
2018-03-14T09:02:34.790Z,6.40
2018-03-14T09:05:02.400Z,6.00
2018-03-14T09:07:29.858Z,5.73
2018-03-14T09:09:57.310Z,6.47
2018-03-14T09:12:24.883Z,6.87
2018-03-14T09:14:52.348Z,6.10
2018-03-14T09:17:19.843Z,6.50
2018-03-14T09:19:47.296Z,6.17
2018-03-14T09:22:14.906Z,6.50
2018-03-14T09:24:42.385Z,6.60
2018-03-14T09:27:09.846Z,6.70
2018-03-14T09:29:37.336Z,6.90
2018-03-14T09:32:04.796Z,7.43
2018-03-14T09:34:32.372Z,6.03
2018-03-14T09:36:59.842Z,6.20
2018-03-14T09:39:27.294Z,8.27
2018-03-14T09:41:54.753Z,6.20
2018-03-14T09:44:22.227Z,6.30
2018-03-14T09:46:49.724Z,5.63
2018-03-14T09:49:17.191Z,6.83
2018-03-14T09:51:44.668Z,7.10
2018-03-14T09:54:12.162Z,5.10
2018-03-14T09:56:39.643Z,6.30
2018-03-14T09:59:07.114Z,6.70
2018-03-14T10:01:34.588Z,7.13
2018-03-14T10:04:03.379Z,6.33
2018-03-14T10:06:30.850Z,6.57
2018-03-14T10:08:58.290Z,6.47
2018-03-14T10:11:25.765Z,7.97
2018-03-14T10:13:53.249Z,7.70
2018-03-14T10:16:20.704Z,7.40
2018-03-14T10:18:48.448Z,5.93
2018-03-14T10:21:16.049Z,6.00
2018-03-14T10:23:43.514Z,7.80
2018-03-14T10:26:11.099Z,6.93
2018-03-14T10:28:38.580Z,8.23
2018-03-14T10:31:06.059Z,7.90
2018-03-14T10:33:33.538Z,6.90
2018-03-14T10:36:01.054Z,5.97
2018-03-14T10:38:28.534Z,6.20
2018-03-14T10:40:56.052Z,5.80
2018-03-14T10:43:23.478Z,4.77
2018-03-14T10:45:50.923Z,5.37
2018-03-14T10:48:18.432Z,4.47
2018-03-14T10:50:45.940Z,4.13
2018-03-14T10:53:13.413Z,4.13
2018-03-14T10:55:40.884Z,4.13
2018-03-14T10:58:08.342Z,4.30
2018-03-14T11:00:41.387Z,3.33
2018-03-14T11:03:14.504Z,5.30
2018-03-14T11:05:41.982Z,5.37
2018-03-14T11:08:09.458Z,3.70
2018-03-14T11:10:36.936Z,4.90
2018-03-14T11:13:04.418Z,5.53
2018-03-14T11:15:31.965Z,4.67
2018-03-14T11:17:59.384Z,12.17
2018-03-14T11:20:26.859Z,1.97
2018-03-14T11:22:54.295Z,4.77
2018-03-14T11:25:21.783Z,4.40
2018-03-14T11:27:49.256Z,4.10
2018-03-14T11:30:16.793Z,2.60
2018-03-14T11:32:44.265Z,2.73
2018-03-14T11:35:11.735Z,2.60
2018-03-14T11:37:39.247Z,2.37
2018-03-14T11:40:06.691Z,2.10
2018-03-14T11:42:34.158Z,2.33
2018-03-14T11:45:01.630Z,2.93
2018-03-14T11:47:29.124Z,2.40
2018-03-14T11:49:56.618Z,4.60
2018-03-14T11:52:24.098Z,4.40
2018-03-14T11:54:51.679Z,4.97
2018-03-14T11:57:19.209Z,5.70
2018-03-14T11:59:46.712Z,5.57
2018-03-14T12:02:14.343Z,4.53
2018-03-14T12:04:41.848Z,5.63
2018-03-14T12:07:09.300Z,5.80
2018-03-14T12:09:36.761Z,5.77
2018-03-14T12:12:04.231Z,5.30
2018-03-14T12:14:32.408Z,5.87
2018-03-14T12:16:59.871Z,4.37
2018-03-14T12:19:27.319Z,4.83
2018-03-14T12:21:54.816Z,5.13
2018-03-14T12:24:22.277Z,4.60
2018-03-14T12:26:49.735Z,5.83
2018-03-14T12:29:17.221Z,7.97
2018-03-14T12:31:44.683Z,5.87
2018-03-14T12:34:12.123Z,5.70
2018-03-14T12:36:39.592Z,4.70
2018-03-14T12:39:07.067Z,5.60
2018-03-14T12:41:34.582Z,6.20
2018-03-14T12:44:02.045Z,5.47
2018-03-14T12:46:29.829Z,5.33
2018-03-14T12:48:57.359Z,6.90
2018-03-14T12:51:24.831Z,4.50
2018-03-14T12:53:52.345Z,4.93
2018-03-14T12:56:19.840Z,5.07
2018-03-14T12:58:47.488Z,4.63
2018-03-14T13:01:14.960Z,5.70
2018-03-14T13:03:43.155Z,4.57
2018-03-14T13:06:10.692Z,5.07
2018-03-14T13:08:38.374Z,4.20
2018-03-14T13:11:05.840Z,4.13
2018-03-14T13:13:33.303Z,4.00
2018-03-14T13:16:00.748Z,3.73
2018-03-14T13:18:28.593Z,3.70
2018-03-14T13:20:56.070Z,4.10
2018-03-14T13:23:23.576Z,3.30
2018-03-14T13:25:51.043Z,3.67
2018-03-14T13:28:18.586Z,3.40
2018-03-14T13:30:47.746Z,3.37
2018-03-14T13:33:16.241Z,3.90
2018-03-14T13:35:43.748Z,3.47
2018-03-14T13:38:11.242Z,3.10
2018-03-14T13:40:38.699Z,4.40
2018-03-14T13:43:06.182Z,3.80
2018-03-14T13:45:33.675Z,3.40
2018-03-14T13:48:01.145Z,3.60
2018-03-14T13:50:28.977Z,3.17
2018-03-14T13:52:56.558Z,2.80
2018-03-14T13:55:24.006Z,3.40
2018-03-14T13:57:51.472Z,3.67
2018-03-14T14:00:18.993Z,2.70
2018-03-14T14:02:46.484Z,3.13
2018-03-14T14:05:13.994Z,3.17
2018-03-14T14:07:41.490Z,3.17
2018-03-14T14:10:09.032Z,2.70
2018-03-14T14:12:36.499Z,4.57
2018-03-14T14:15:03.998Z,3.37
2018-03-14T14:17:31.478Z,2.87
2018-03-14T14:19:58.969Z,2.90
2018-03-14T14:22:26.433Z,4.00
2018-03-14T14:24:53.901Z,4.33
2018-03-14T14:27:21.521Z,3.80
2018-03-14T14:29:48.980Z,6.30
2018-03-14T14:32:17.253Z,3.97
2018-03-14T14:34:44.715Z,6.60
2018-03-14T14:37:12.158Z,7.83
2018-03-14T14:39:39.629Z,3.70
2018-03-14T14:42:07.122Z,13.30
2018-03-14T14:44:34.592Z,5.83
2018-03-14T14:47:02.083Z,19.20
2018-03-14T14:49:29.559Z,6.43
2018-03-14T14:51:57.020Z,5.67
2018-03-14T14:54:25.642Z,6.93
2018-03-14T14:56:53.113Z,4.10
2018-03-14T14:59:20.596Z,3.67
2018-03-14T15:01:48.057Z,3.77
2018-03-14T15:04:15.641Z,3.30
2018-03-14T15:06:43.826Z,3.50
2018-03-14T15:09:11.552Z,3.80
2018-03-14T15:11:39.019Z,2.80
2018-03-14T15:14:06.519Z,3.00
2018-03-14T15:16:33.971Z,3.37
2018-03-14T15:19:01.473Z,2.43
2018-03-14T15:21:29.009Z,2.23
2018-03-14T15:23:56.462Z,3.10
2018-03-14T15:26:23.969Z,2.70
2018-03-14T15:28:51.491Z,3.50
2018-03-14T15:31:18.948Z,3.33
2018-03-14T15:33:46.413Z,3.13
2018-03-14T15:36:13.881Z,2.93
2018-03-14T15:38:41.359Z,2.93
2018-03-14T15:41:08.908Z,2.67
2018-03-14T15:43:36.356Z,3.47
2018-03-14T15:46:03.852Z,2.90
2018-03-14T15:48:31.578Z,3.03
2018-03-14T15:50:59.087Z,2.20
2018-03-14T15:53:26.557Z,2.00
2018-03-14T15:55:54.032Z,2.70
2018-03-14T15:58:21.505Z,2.47
2018-03-14T16:00:49.115Z,2.33
2018-03-14T16:03:18.064Z,2.70
2018-03-14T16:05:45.540Z,2.17
2018-03-14T16:08:13.018Z,1.53
2018-03-14T16:10:40.540Z,2.90
2018-03-14T16:13:08.095Z,1.90
2018-03-14T16:15:35.562Z,2.20
2018-03-14T16:18:03.019Z,2.10
2018-03-14T16:20:30.861Z,1.97
2018-03-14T16:22:58.389Z,1.90
2018-03-14T16:25:25.856Z,2.30
2018-03-14T16:27:53.313Z,1.77
2018-03-14T16:30:21.535Z,2.13
2018-03-14T16:32:49.041Z,2.17
2018-03-14T16:35:16.516Z,2.13
2018-03-14T16:37:43.969Z,1.70
2018-03-14T16:40:11.500Z,1.73
2018-03-14T16:42:39.035Z,1.50
2018-03-14T16:45:06.517Z,2.13
2018-03-14T16:47:34.133Z,1.50
2018-03-14T16:50:01.593Z,3.10
2018-03-14T16:52:29.917Z,2.80
2018-03-14T16:54:57.415Z,2.90
2018-03-14T16:57:24.885Z,2.40
2018-03-14T16:59:52.345Z,2.93
2018-03-14T17:02:19.803Z,2.70
2018-03-14T17:04:47.265Z,2.43
2018-03-14T17:07:14.724Z,3.80
2018-03-14T17:09:42.180Z,2.90
2018-03-14T17:12:09.666Z,2.27
2018-03-14T17:14:38.072Z,2.70
2018-03-14T17:17:05.579Z,2.10
2018-03-14T17:19:33.070Z,2.00
2018-03-14T17:22:00.564Z,2.07
2018-03-14T17:24:29.356Z,2.53
2018-03-14T17:26:56.865Z,2.00
2018-03-14T17:29:24.339Z,2.63
2018-03-14T17:31:52.242Z,2.93
2018-03-14T17:34:19.787Z,2.87
2018-03-14T17:36:47.450Z,2.70
2018-03-14T17:39:15.154Z,4.10
2018-03-14T17:41:42.656Z,4.20
2018-03-14T17:44:10.152Z,3.10
2018-03-14T17:46:37.637Z,3.77
2018-03-14T17:49:05.841Z,4.20
2018-03-14T17:51:33.357Z,3.93
2018-03-14T17:54:00.792Z,3.50
2018-03-14T17:56:28.509Z,3.50
2018-03-14T17:58:55.960Z,3.10
2018-03-14T18:01:23.424Z,3.73
2018-03-14T18:03:50.927Z,3.97
2018-03-14T18:06:18.388Z,3.77
2018-03-14T18:08:45.850Z,3.90
2018-03-14T18:11:13.322Z,4.13
2018-03-14T18:13:40.784Z,3.90
2018-03-14T18:16:08.256Z,3.90
2018-03-14T18:18:35.731Z,4.20
2018-03-14T18:21:03.188Z,4.90
2018-03-14T18:23:30.661Z,5.53
2018-03-14T18:25:58.124Z,4.37
2018-03-14T18:28:25.589Z,4.17
2018-03-14T18:30:53.144Z,4.70
2018-03-14T18:33:20.640Z,4.33
2018-03-14T18:35:48.111Z,4.70
2018-03-14T18:38:17.250Z,5.60
2018-03-14T18:40:44.716Z,5.23
2018-03-14T18:43:12.249Z,4.80
2018-03-14T18:45:39.735Z,5.30
2018-03-14T18:48:07.232Z,4.63
2018-03-14T18:50:34.749Z,4.33
2018-03-14T18:53:02.272Z,4.77
2018-03-14T18:55:29.772Z,3.90
2018-03-14T18:57:57.265Z,4.10
2018-03-14T19:00:27.597Z,5.47
2018-03-14T19:02:55.085Z,4.23
2018-03-14T19:05:22.588Z,3.90
2018-03-14T19:07:50.055Z,4.47
2018-03-14T19:10:17.647Z,3.43
2018-03-14T19:12:45.231Z,3.27
2018-03-14T19:15:12.782Z,2.60
2018-03-14T19:17:40.317Z,3.13
2018-03-14T19:20:07.824Z,3.00
2018-03-14T19:22:37.180Z,2.40
2018-03-14T19:25:04.727Z,2.23
2018-03-14T19:27:32.641Z,2.53
2018-03-14T19:30:05.223Z,2.40
2018-03-14T19:32:32.930Z,3.40
2018-03-14T19:35:00.435Z,2.90
2018-03-14T19:37:27.942Z,2.63
2018-03-14T19:39:55.446Z,3.40
2018-03-14T19:42:23.306Z,2.83
2018-03-14T19:44:50.920Z,2.67
2018-03-14T19:47:18.494Z,2.67
2018-03-14T19:49:45.980Z,3.73
2018-03-14T19:52:14.326Z,3.23
2018-03-14T19:54:41.801Z,3.90
2018-03-14T19:57:09.279Z,3.30
2018-03-14T19:59:36.856Z,4.60
2018-03-14T20:02:04.378Z,4.00
2018-03-14T20:04:32.433Z,4.03
2018-03-14T20:07:00.017Z,3.40
2018-03-14T20:09:27.472Z,4.40
2018-03-14T20:11:55.000Z,3.87
2018-03-14T20:14:22.459Z,3.57
2018-03-14T20:16:49.953Z,4.17
2018-03-14T20:19:17.456Z,3.93
2018-03-14T20:21:44.916Z,4.97
2018-03-14T20:24:12.401Z,4.60
2018-03-14T20:26:39.951Z,5.00
2018-03-14T20:29:07.472Z,4.20
2018-03-14T20:31:34.995Z,4.30
2018-03-14T20:34:02.465Z,3.60
2018-03-14T20:36:32.042Z,4.23
2018-03-14T20:38:59.664Z,4.63
2018-03-14T20:41:27.165Z,5.37
2018-03-14T20:43:54.653Z,5.90
2018-03-14T20:46:24.307Z,7.13
2018-03-14T20:48:51.756Z,9.17
2018-03-14T20:51:19.317Z,8.67
2018-03-14T20:53:46.814Z,9.27
2018-03-14T20:56:15.817Z,9.10
2018-03-14T20:58:43.288Z,8.90
2018-03-14T21:01:10.957Z,10.50
2018-03-14T21:03:38.444Z,10.23
2018-03-14T21:06:05.946Z,10.97
2018-03-14T21:08:37.315Z,10.33
2018-03-14T21:11:04.839Z,11.83
2018-03-14T21:13:32.334Z,12.77
2018-03-14T21:15:59.795Z,13.80
2018-03-14T21:18:28.116Z,14.30
2018-03-14T21:20:55.664Z,14.20
2018-03-14T21:23:23.125Z,14.90
2018-03-14T21:25:50.635Z,13.97
2018-03-14T21:28:19.064Z,13.77
2018-03-14T21:30:46.605Z,14.63
2018-03-14T21:33:15.366Z,15.93
2018-03-14T21:35:42.847Z,18.03
2018-03-14T21:38:10.336Z,15.97
2018-03-14T21:40:37.870Z,18.17
2018-03-14T21:43:05.363Z,15.87
2018-03-14T21:45:33.788Z,16.60
2018-03-14T21:48:01.247Z,15.73
2018-03-14T21:50:29.635Z,15.47
2018-03-14T21:52:57.121Z,15.70
2018-03-14T21:55:36.462Z,17.80
2018-03-14T21:58:03.950Z,16.10
2018-03-14T22:00:31.439Z,17.73
2018-03-14T22:02:59.407Z,18.40
2018-03-14T22:05:26.950Z,22.27
2018-03-14T22:07:54.464Z,24.83
2018-03-14T22:10:22.004Z,22.80
2018-03-14T22:12:49.509Z,19.63
2018-03-14T22:15:17.005Z,25.70
2018-03-14T22:17:44.465Z,24.30
2018-03-14T22:20:11.996Z,30.90
2018-03-14T22:22:39.486Z,22.70
2018-03-14T22:25:06.964Z,31.67
2018-03-14T22:27:34.452Z,33.30
2018-03-14T22:30:01.906Z,28.53
2018-03-14T22:32:29.415Z,19.03
2018-03-14T22:34:56.897Z,17.07
2018-03-14T22:37:24.386Z,17.07
2018-03-14T22:39:51.855Z,17.57
2018-03-14T22:42:19.471Z,18.20
2018-03-14T22:44:46.967Z,17.80
2018-03-14T22:47:14.444Z,19.10
2018-03-14T22:49:41.941Z,18.50
2018-03-14T22:52:09.455Z,18.93
2018-03-14T22:54:36.919Z,18.57
2018-03-14T22:57:04.396Z,17.70
2018-03-14T22:59:31.886Z,17.30
2018-03-14T23:01:59.394Z,17.20
2018-03-14T23:04:27.112Z,20.10
2018-03-14T23:06:54.595Z,16.67
2018-03-14T23:09:22.079Z,17.10
2018-03-14T23:11:49.613Z,17.03
2018-03-14T23:14:17.963Z,17.17
2018-03-14T23:16:45.427Z,16.00
2018-03-14T23:19:13.449Z,17.33
2018-03-14T23:21:40.932Z,16.23
2018-03-14T23:24:08.445Z,17.53
2018-03-14T23:26:35.903Z,16.40
2018-03-14T23:29:03.635Z,18.47
2018-03-14T23:31:31.119Z,16.50
2018-03-14T23:33:58.574Z,17.20
2018-03-14T23:36:26.273Z,18.10
2018-03-14T23:38:53.754Z,18.67
2018-03-14T23:41:21.216Z,16.47
2018-03-14T23:43:48.696Z,16.77
2018-03-14T23:46:18.399Z,16.57
2018-03-14T23:48:46.251Z,16.13
2018-03-14T23:51:13.985Z,16.67
2018-03-14T23:53:41.470Z,16.70
2018-03-14T23:56:08.952Z,15.13
2018-03-14T23:58:36.427Z,15.80
